Boadilla del Monte, Spain
Current Conditions -  °F | °C
As of 10:00 PM on Saturday 25 Oct 2014 (Local Time) from LEVS Reporting Station
Clear Clear  
Wind Chill: 64°   Ceiling: Unl
Heat Index: 64°   Visibility: 6mi
Dew Point: 43°   Wind: 1mph
Humidity: 45%   Direction: 360°N
Pressure: 30.18"   Gusts: NA
Location:  40.41°N, 3.88°W
Report Text: LEVS 252000Z 36001KT CAVOK 18/06 Q1022
Loading
Personal Weather Stations






























Interactive Weather Map
Tropical Storm Tracking
New forecast layout! Learn more

10-Day Weather Forecast

Advertisements
Track Severe Weather on mobile